sensor_id;sensor_type;location;lat;lon;timestamp;P1;P2;P0
44045;PMS7003;29709;52.396;16.796;2022-08-19T00:01:45;14;13;10
44045;PMS7003;29709;52.396;16.796;2022-08-19T00:04:50;15;13;11
44045;PMS7003;29709;52.396;16.796;2022-08-19T00:07:54;15;13;11
44045;PMS7003;29709;52.396;16.796;2022-08-19T00:10:57;21;17;14
44045;PMS7003;29709;52.396;16.796;2022-08-19T00:14:26;12;11;9
44045;PMS7003;29709;52.396;16.796;2022-08-19T00:17:29;17;14;10
44045;PMS7003;29709;52.396;16.796;2022-08-19T00:20:32;19;17;13
44045;PMS7003;29709;52.396;16.796;2022-08-19T00:23:35;15;13;10
44045;PMS7003;29709;52.396;16.796;2022-08-19T00:26:39;17;16;13
44045;PMS7003;29709;52.396;16.796;2022-08-19T00:29:43;14;14;11
44045;PMS7003;29709;52.396;16.796;2022-08-19T00:32:48;13;12;10
44045;PMS7003;29709;52.396;16.796;2022-08-19T00:35:52;15;13;11
44045;PMS7003;29709;52.396;16.796;2022-08-19T00:38:57;17;14;10
44045;PMS7003;29709;52.396;16.796;2022-08-19T00:42:27;18;15;12
44045;PMS7003;29709;52.396;16.796;2022-08-19T00:45:30;13;13;11
44045;PMS7003;29709;52.396;16.796;2022-08-19T00:48:34;15;14;12
44045;PMS7003;29709;52.396;16.796;2022-08-19T00:51:38;18;14;12
44045;PMS7003;29709;52.396;16.796;2022-08-19T00:54:41;15;14;11
44045;PMS7003;29709;52.396;16.796;2022-08-19T00:57:51;22;16;13
44045;PMS7003;29709;52.396;16.796;2022-08-19T01:00:57;15;14;12
44045;PMS7003;29709;52.396;16.796;2022-08-19T01:04:00;16;13;10
44045;PMS7003;29709;52.396;16.796;2022-08-19T01:07:03;13;12;10
44045;PMS7003;29709;52.396;16.796;2022-08-19T01:10:37;17;12;10
44045;PMS7003;29709;52.396;16.796;2022-08-19T01:13:44;13;11;9
44045;PMS7003;29709;52.396;16.796;2022-08-19T01:16:48;19;13;11
44045;PMS7003;29709;52.396;16.796;2022-08-19T01:19:56;17;16;14
44045;PMS7003;29709;52.396;16.796;2022-08-19T01:23:00;15;13;10
44045;PMS7003;29709;52.396;16.796;2022-08-19T01:26:04;14;13;10
44045;PMS7003;29709;52.396;16.796;2022-08-19T01:29:07;17;13;12
44045;PMS7003;29709;52.396;16.796;2022-08-19T01:32:39;16;13;10
44045;PMS7003;29709;52.396;16.796;2022-08-19T01:35:42;15;14;11
44045;PMS7003;29709;52.396;16.796;2022-08-19T01:38:45;16;13;10
44045;PMS7003;29709;52.396;16.796;2022-08-19T01:41:48;10;10;9
44045;PMS7003;29709;52.396;16.796;2022-08-19T01:44:51;14;12;11
44045;PMS7003;29709;52.396;16.796;2022-08-19T01:47:55;13;13;11
44045;PMS7003;29709;52.396;16.796;2022-08-19T01:50:59;12;12;10
44045;PMS7003;29709;52.396;16.796;2022-08-19T01:54:02;14;12;10
44045;PMS7003;29709;52.396;16.796;2022-08-19T01:57:07;15;13;10
44045;PMS7003;29709;52.396;16.796;2022-08-19T02:00:41;13;11;9
44045;PMS7003;29709;52.396;16.796;2022-08-19T02:03:47;10;9;7
44045;PMS7003;29709;52.396;16.796;2022-08-19T02:06:50;12;11;9
44045;PMS7003;29709;52.396;16.796;2022-08-19T02:09:54;13;8;7
44045;PMS7003;29709;52.396;16.796;2022-08-19T02:12:58;13;12;10
44045;PMS7003;29709;52.396;16.796;2022-08-19T02:16:01;15;12;10
44045;PMS7003;29709;52.396;16.796;2022-08-19T02:19:04;13;12;10
44045;PMS7003;29709;52.396;16.796;2022-08-19T02:22:07;10;10;8
44045;PMS7003;29709;52.396;16.796;2022-08-19T02:25:11;14;13;10
44045;PMS7003;29709;52.396;16.796;2022-08-19T02:28:15;13;11;9
44045;PMS7003;29709;52.396;16.796;2022-08-19T02:31:43;12;10;8
44045;PMS7003;29709;52.396;16.796;2022-08-19T02:34:47;11;10;8
44045;PMS7003;29709;52.396;16.796;2022-08-19T02:37:50;12;12;9
44045;PMS7003;29709;52.396;16.796;2022-08-19T02:41:06;16;14;11
44045;PMS7003;29709;52.396;16.796;2022-08-19T02:44:14;12;11;9
44045;PMS7003;29709;52.396;16.796;2022-08-19T02:47:17;13;11;9
44045;PMS7003;29709;52.396;16.796;2022-08-19T02:50:21;11;9;8
44045;PMS7003;29709;52.396;16.796;2022-08-19T02:53:49;14;13;11
44045;PMS7003;29709;52.396;16.796;2022-08-19T02:56:54;15;11;9
44045;PMS7003;29709;52.396;16.796;2022-08-19T02:59:57;13;11;10
44045;PMS7003;29709;52.396;16.796;2022-08-19T03:03:01;11;11;9
44045;PMS7003;29709;52.396;16.796;2022-08-19T03:09:16;11;11;9
44045;PMS7003;29709;52.396;16.796;2022-08-19T03:12:20;10;10;9
44045;PMS7003;29709;52.396;16.796;2022-08-19T03:15:24;16;14;10
44045;PMS7003;29709;52.396;16.796;2022-08-19T03:18:56;11;8;6
44045;PMS7003;29709;52.396;16.796;2022-08-19T03:22:02;13;12;10
44045;PMS7003;29709;52.396;16.796;2022-08-19T03:25:07;11;8;6
44045;PMS7003;29709;52.396;16.796;2022-08-19T03:28:10;12;11;9
44045;PMS7003;29709;52.396;16.796;2022-08-19T03:31:16;14;11;9
44045;PMS7003;29709;52.396;16.796;2022-08-19T03:34:25;14;9;8
44045;PMS7003;29709;52.396;16.796;2022-08-19T03:37:30;13;12;10
44045;PMS7003;29709;52.396;16.796;2022-08-19T03:40:36;11;9;7
44045;PMS7003;29709;52.396;16.796;2022-08-19T03:44:04;13;13;10
44045;PMS7003;29709;52.396;16.796;2022-08-19T03:47:07;13;11;9
44045;PMS7003;29709;52.396;16.796;2022-08-19T03:50:10;14;12;10
44045;PMS7003;29709;52.396;16.796;2022-08-19T03:53:13;13;10;8
44045;PMS7003;29709;52.396;16.796;2022-08-19T03:56:17;17;15;12
44045;PMS7003;29709;52.396;16.796;2022-08-19T03:59:27;11;9;8
44045;PMS7003;29709;52.396;16.796;2022-08-19T04:02:33;14;12;10
44045;PMS7003;29709;52.396;16.796;2022-08-19T04:05:36;12;10;8
44045;PMS7003;29709;52.396;16.796;2022-08-19T04:09:08;14;12;10
44045;PMS7003;29709;52.396;16.796;2022-08-19T04:12:13;13;8;6
44045;PMS7003;29709;52.396;16.796;2022-08-19T04:15:17;14;10;8
44045;PMS7003;29709;52.396;16.796;2022-08-19T04:18:21;20;13;11
44045;PMS7003;29709;52.396;16.796;2022-08-19T04:21:24;13;12;9
44045;PMS7003;29709;52.396;16.796;2022-08-19T04:24:28;10;7;6
44045;PMS7003;29709;52.396;16.796;2022-08-19T04:27:31;17;13;10
44045;PMS7003;29709;52.396;16.796;2022-08-19T04:34:15;16;14;11
44045;PMS7003;29709;52.396;16.796;2022-08-19T04:37:20;12;11;9
44045;PMS7003;29709;52.396;16.796;2022-08-19T04:43:44;15;13;10
44045;PMS7003;29709;52.396;16.796;2022-08-19T04:46:52;15;11;8
44045;PMS7003;29709;52.396;16.796;2022-08-19T04:49:55;11;11;10
44045;PMS7003;29709;52.396;16.796;2022-08-19T04:53:30;11;10;9
44045;PMS7003;29709;52.396;16.796;2022-08-19T04:56:34;12;12;10
44045;PMS7003;29709;52.396;16.796;2022-08-19T04:59:37;16;15;12
44045;PMS7003;29709;52.396;16.796;2022-08-19T05:02:41;16;14;11
44045;PMS7003;29709;52.396;16.796;2022-08-19T05:05:45;17;15;12
44045;PMS7003;29709;52.396;16.796;2022-08-19T05:08:50;15;13;11
44045;PMS7003;29709;52.396;16.796;2022-08-19T05:12:00;17;13;11
44045;PMS7003;29709;52.396;16.796;2022-08-19T05:15:34;14;13;11
44045;PMS7003;29709;52.396;16.796;2022-08-19T05:18:38;14;12;9
44045;PMS7003;29709;52.396;16.796;2022-08-19T05:21:54;13;13;11
44045;PMS7003;29709;52.396;16.796;2022-08-19T05:25:10;11;11;10
44045;PMS7003;29709;52.396;16.796;2022-08-19T05:28:16;16;14;12
44045;PMS7003;29709;52.396;16.796;2022-08-19T05:31:19;16;13;11
44045;PMS7003;29709;52.396;16.796;2022-08-19T05:34:48;14;12;10
44045;PMS7003;29709;52.396;16.796;2022-08-19T05:37:51;14;13;10
44045;PMS7003;29709;52.396;16.796;2022-08-19T05:40:56;13;12;10
44045;PMS7003;29709;52.396;16.796;2022-08-19T05:44:03;17;14;11
44045;PMS7003;29709;52.396;16.796;2022-08-19T05:47:12;18;16;14
44045;PMS7003;29709;52.396;16.796;2022-08-19T05:50:17;14;10;9
44045;PMS7003;29709;52.396;16.796;2022-08-19T05:53:22;16;14;11
44045;PMS7003;29709;52.396;16.796;2022-08-19T05:56:25;16;15;12
44045;PMS7003;29709;52.396;16.796;2022-08-19T05:59:55;16;12;10
44045;PMS7003;29709;52.396;16.796;2022-08-19T06:02:59;12;11;9
44045;PMS7003;29709;52.396;16.796;2022-08-19T06:06:06;9;8;7
44045;PMS7003;29709;52.396;16.796;2022-08-19T06:09:10;20;17;14
44045;PMS7003;29709;52.396;16.796;2022-08-19T06:12:13;18;15;12
44045;PMS7003;29709;52.396;16.796;2022-08-19T06:15:16;16;12;9
44045;PMS7003;29709;52.396;16.796;2022-08-19T06:18:19;13;12;9
44045;PMS7003;29709;52.396;16.796;2022-08-19T06:21:24;12;11;9
44045;PMS7003;29709;52.396;16.796;2022-08-19T06:24:29;11;9;7
44045;PMS7003;29709;52.396;16.796;2022-08-19T06:27:59;17;13;12
44045;PMS7003;29709;52.396;16.796;2022-08-19T06:31:05;15;13;11
44045;PMS7003;29709;52.396;16.796;2022-08-19T06:34:09;14;12;10
44045;PMS7003;29709;52.396;16.796;2022-08-19T06:37:12;18;15;13
44045;PMS7003;29709;52.396;16.796;2022-08-19T06:40:16;16;15;12
44045;PMS7003;29709;52.396;16.796;2022-08-19T06:43:19;19;14;11
44045;PMS7003;29709;52.396;16.796;2022-08-19T06:46:22;15;13;11
44045;PMS7003;29709;52.396;16.796;2022-08-19T06:49:25;16;13;11
44045;PMS7003;29709;52.396;16.796;2022-08-19T06:52:34;16;11;8
44045;PMS7003;29709;52.396;16.796;2022-08-19T06:56:03;14;13;11
44045;PMS7003;29709;52.396;16.796;2022-08-19T06:59:07;16;13;11
44045;PMS7003;29709;52.396;16.796;2022-08-19T07:02:12;16;14;12
44045;PMS7003;29709;52.396;16.796;2022-08-19T07:05:15;15;14;11
44045;PMS7003;29709;52.396;16.796;2022-08-19T07:08:19;14;12;10
44045;PMS7003;29709;52.396;16.796;2022-08-19T07:11:22;16;14;12
44045;PMS7003;29709;52.396;16.796;2022-08-19T07:14:26;12;10;8
44045;PMS7003;29709;52.396;16.796;2022-08-19T07:17:30;17;14;11
44045;PMS7003;29709;52.396;16.796;2022-08-19T07:20:33;16;12;10
44045;PMS7003;29709;52.396;16.796;2022-08-19T07:24:03;15;12;10
44045;PMS7003;29709;52.396;16.796;2022-08-19T07:27:06;15;14;11
44045;PMS7003;29709;52.396;16.796;2022-08-19T07:30:13;16;14;11
44045;PMS7003;29709;52.396;16.796;2022-08-19T07:33:16;14;14;12
44045;PMS7003;29709;52.396;16.796;2022-08-19T07:36:22;14;13;11
44045;PMS7003;29709;52.396;16.796;2022-08-19T07:39:28;18;15;13
44045;PMS7003;29709;52.396;16.796;2022-08-19T07:42:32;16;15;11
44045;PMS7003;29709;52.396;16.796;2022-08-19T07:45:35;10;9;7
44045;PMS7003;29709;52.396;16.796;2022-08-19T07:48:39;19;18;16
44045;PMS7003;29709;52.396;16.796;2022-08-19T07:52:09;15;12;10
44045;PMS7003;29709;52.396;16.796;2022-08-19T07:55:13;11;10;9
44045;PMS7003;29709;52.396;16.796;2022-08-19T07:58:17;18;16;13
44045;PMS7003;29709;52.396;16.796;2022-08-19T08:01:24;17;15;12
44045;PMS7003;29709;52.396;16.796;2022-08-19T08:07:25;15;13;9
44045;PMS7003;29709;52.396;16.796;2022-08-19T08:10:39;18;16;12
44045;PMS7003;29709;52.396;16.796;2022-08-19T08:13:43;15;13;10
44045;PMS7003;29709;52.396;16.796;2022-08-19T08:16:46;10;8;7
44045;PMS7003;29709;52.396;16.796;2022-08-19T08:19:50;18;16;13
44045;PMS7003;29709;52.396;16.796;2022-08-19T08:22:53;17;14;11
44045;PMS7003;29709;52.396;16.796;2022-08-19T08:26:08;13;12;10
44045;PMS7003;29709;52.396;16.796;2022-08-19T08:29:36;18;15;12
44045;PMS7003;29709;52.396;16.796;2022-08-19T08:32:43;19;16;14
44045;PMS7003;29709;52.396;16.796;2022-08-19T08:35:47;15;14;11
44045;PMS7003;29709;52.396;16.796;2022-08-19T08:38:50;20;15;12
44045;PMS7003;29709;52.396;16.796;2022-08-19T08:45:11;15;14;12
44045;PMS7003;29709;52.396;16.796;2022-08-19T08:48:19;18;17;15
44045;PMS7003;29709;52.396;16.796;2022-08-19T08:51:34;19;17;13
44045;PMS7003;29709;52.396;16.796;2022-08-19T08:54:42;18;15;13
44045;PMS7003;29709;52.396;16.796;2022-08-19T08:57:52;17;12;9
44045;PMS7003;29709;52.396;16.796;2022-08-19T09:01:00;16;14;12
44045;PMS7003;29709;52.396;16.796;2022-08-19T09:04:28;18;14;12
44045;PMS7003;29709;52.396;16.796;2022-08-19T09:07:39;19;18;14
44045;PMS7003;29709;52.396;16.796;2022-08-19T09:10:51;19;17;13
44045;PMS7003;29709;52.396;16.796;2022-08-19T09:14:03;14;14;11
44045;PMS7003;29709;52.396;16.796;2022-08-19T09:17:14;12;9;8
44045;PMS7003;29709;52.396;16.796;2022-08-19T09:20:44;20;17;13
44045;PMS7003;29709;52.396;16.796;2022-08-19T09:23:50;11;10;9
44045;PMS7003;29709;52.396;16.796;2022-08-19T09:26:53;16;14;11
44045;PMS7003;29709;52.396;16.796;2022-08-19T09:29:56;20;18;13
44045;PMS7003;29709;52.396;16.796;2022-08-19T09:33:00;19;16;13
44045;PMS7003;29709;52.396;16.796;2022-08-19T09:36:07;19;18;14
44045;PMS7003;29709;52.396;16.796;2022-08-19T09:39:12;20;18;15
44045;PMS7003;29709;52.396;16.796;2022-08-19T09:42:14;17;15;12
44045;PMS7003;29709;52.396;16.796;2022-08-19T09:45:19;18;15;12
44045;PMS7003;29709;52.396;16.796;2022-08-19T09:48:49;13;12;9
44045;PMS7003;29709;52.396;16.796;2022-08-19T09:51:54;19;16;13
44045;PMS7003;29709;52.396;16.796;2022-08-19T09:54:58;8;7;7
44045;PMS7003;29709;52.396;16.796;2022-08-19T09:58:01;18;15;13
44045;PMS7003;29709;52.396;16.796;2022-08-19T10:01:05;20;15;9
44045;PMS7003;29709;52.396;16.796;2022-08-19T10:04:09;18;16;13
44045;PMS7003;29709;52.396;16.796;2022-08-19T10:07:13;18;15;11
44045;PMS7003;29709;52.396;16.796;2022-08-19T10:10:16;15;14;11
44045;PMS7003;29709;52.396;16.796;2022-08-19T10:13:24;17;13;11
44045;PMS7003;29709;52.396;16.796;2022-08-19T10:16:54;18;16;13
44045;PMS7003;29709;52.396;16.796;2022-08-19T10:19:59;16;14;12
44045;PMS7003;29709;52.396;16.796;2022-08-19T10:23:02;18;15;12
44045;PMS7003;29709;52.396;16.796;2022-08-19T10:26:06;17;14;12
44045;PMS7003;29709;52.396;16.796;2022-08-19T10:29:09;18;14;12
44045;PMS7003;29709;52.396;16.796;2022-08-19T10:32:14;14;12;9
44045;PMS7003;29709;52.396;16.796;2022-08-19T10:35:17;13;12;10
44045;PMS7003;29709;52.396;16.796;2022-08-19T10:38:20;17;16;13
44045;PMS7003;29709;52.396;16.796;2022-08-19T10:41:25;13;12;11
44045;PMS7003;29709;52.396;16.796;2022-08-19T10:44:55;16;15;13
44045;PMS7003;29709;52.396;16.796;2022-08-19T10:47:58;14;9;6
44045;PMS7003;29709;52.396;16.796;2022-08-19T10:51:01;12;11;9
44045;PMS7003;29709;52.396;16.796;2022-08-19T10:54:16;18;15;11
44045;PMS7003;29709;52.396;16.796;2022-08-19T10:57:20;14;14;11
44045;PMS7003;29709;52.396;16.796;2022-08-19T11:00:31;12;10;9
44045;PMS7003;29709;52.396;16.796;2022-08-19T11:03:34;14;10;9
44045;PMS7003;29709;52.396;16.796;2022-08-19T11:07:03;15;12;10
44045;PMS7003;29709;52.396;16.796;2022-08-19T11:10:09;10;8;7
44045;PMS7003;29709;52.396;16.796;2022-08-19T11:13:14;10;9;8
44045;PMS7003;29709;52.396;16.796;2022-08-19T11:16:19;15;13;11
44045;PMS7003;29709;52.396;16.796;2022-08-19T11:19:25;14;13;10
44045;PMS7003;29709;52.396;16.796;2022-08-19T11:22:28;11;10;9
44045;PMS7003;29709;52.396;16.796;2022-08-19T11:25:31;10;9;7
44045;PMS7003;29709;52.396;16.796;2022-08-19T11:28:35;9;8;6
44045;PMS7003;29709;52.396;16.796;2022-08-19T11:31:40;12;12;10
44045;PMS7003;29709;52.396;16.796;2022-08-19T11:35:11;12;9;6
44045;PMS7003;29709;52.396;16.796;2022-08-19T11:38:14;15;13;11
44045;PMS7003;29709;52.396;16.796;2022-08-19T11:41:18;11;11;9
44045;PMS7003;29709;52.396;16.796;2022-08-19T11:44:22;11;11;9
44045;PMS7003;29709;52.396;16.796;2022-08-19T11:47:25;10;9;7
44045;PMS7003;29709;52.396;16.796;2022-08-19T11:50:28;14;12;9
44045;PMS7003;29709;52.396;16.796;2022-08-19T11:53:32;14;12;10
44045;PMS7003;29709;52.396;16.796;2022-08-19T11:56:37;9;7;5
44045;PMS7003;29709;52.396;16.796;2022-08-19T11:59:41;15;11;9
44045;PMS7003;29709;52.396;16.796;2022-08-19T12:03:12;9;6;5
44045;PMS7003;29709;52.396;16.796;2022-08-19T12:06:20;10;8;5
44045;PMS7003;29709;52.396;16.796;2022-08-19T12:09:30;8;7;5
44045;PMS7003;29709;52.396;16.796;2022-08-19T12:12:36;13;11;8
44045;PMS7003;29709;52.396;16.796;2022-08-19T12:15:47;12;8;6
44045;PMS7003;29709;52.396;16.796;2022-08-19T12:18:50;15;11;10
44045;PMS7003;29709;52.396;16.796;2022-08-19T12:21:58;14;11;9
44045;PMS7003;29709;52.396;16.796;2022-08-19T12:25:30;18;13;11
44045;PMS7003;29709;52.396;16.796;2022-08-19T12:28:35;16;14;12
44045;PMS7003;29709;52.396;16.796;2022-08-19T12:31:38;20;18;15
44045;PMS7003;29709;52.396;16.796;2022-08-19T12:34:42;17;16;12
44045;PMS7003;29709;52.396;16.796;2022-08-19T12:37:45;17;15;12
44045;PMS7003;29709;52.396;16.796;2022-08-19T12:40:50;18;16;13
44045;PMS7003;29709;52.396;16.796;2022-08-19T12:43:54;19;17;14
44045;PMS7003;29709;52.396;16.796;2022-08-19T12:46:58;24;18;13
44045;PMS7003;29709;52.396;16.796;2022-08-19T12:50:01;15;14;11
44045;PMS7003;29709;52.396;16.796;2022-08-19T12:53:36;16;14;11
44045;PMS7003;29709;52.396;16.796;2022-08-19T12:56:39;13;8;7
44045;PMS7003;29709;52.396;16.796;2022-08-19T12:59:44;17;15;12
44045;PMS7003;29709;52.396;16.796;2022-08-19T13:02:49;17;15;12
44045;PMS7003;29709;52.396;16.796;2022-08-19T13:05:54;15;14;10
44045;PMS7003;29709;52.396;16.796;2022-08-19T13:08:57;11;10;7
44045;PMS7003;29709;52.396;16.796;2022-08-19T13:12:01;12;11;9
44045;PMS7003;29709;52.396;16.796;2022-08-19T13:15:09;14;13;11
44045;PMS7003;29709;52.396;16.796;2022-08-19T13:18:40;17;14;11
44045;PMS7003;29709;52.396;16.796;2022-08-19T13:21:44;13;10;9
44045;PMS7003;29709;52.396;16.796;2022-08-19T13:24:47;12;11;8
44045;PMS7003;29709;52.396;16.796;2022-08-19T13:27:50;19;16;13
44045;PMS7003;29709;52.396;16.796;2022-08-19T13:30:54;13;12;10
44045;PMS7003;29709;52.396;16.796;2022-08-19T13:34:08;14;13;10
44045;PMS7003;29709;52.396;16.796;2022-08-19T13:37:12;15;13;11
44045;PMS7003;29709;52.396;16.796;2022-08-19T13:40:17;14;13;11
44045;PMS7003;29709;52.396;16.796;2022-08-19T13:43:51;15;15;11
44045;PMS7003;29709;52.396;16.796;2022-08-19T13:46:54;17;16;14
44045;PMS7003;29709;52.396;16.796;2022-08-19T13:53:13;17;16;14
44045;PMS7003;29709;52.396;16.796;2022-08-19T13:56:18;14;14;11
44045;PMS7003;29709;52.396;16.796;2022-08-19T13:59:22;14;11;9
44045;PMS7003;29709;52.396;16.796;2022-08-19T14:02:26;15;12;11
44045;PMS7003;29709;52.396;16.796;2022-08-19T14:05:30;17;14;11
44045;PMS7003;29709;52.396;16.796;2022-08-19T14:08:59;18;15;12
44045;PMS7003;29709;52.396;16.796;2022-08-19T14:12:04;14;13;9
44045;PMS7003;29709;52.396;16.796;2022-08-19T14:15:08;16;14;11
44045;PMS7003;29709;52.396;16.796;2022-08-19T14:18:22;14;13;10
44045;PMS7003;29709;52.396;16.796;2022-08-19T14:21:27;19;16;12
44045;PMS7003;29709;52.396;16.796;2022-08-19T14:24:31;18;16;14
44045;PMS7003;29709;52.396;16.796;2022-08-19T14:27:37;15;13;11
44045;PMS7003;29709;52.396;16.796;2022-08-19T14:31:09;13;11;8
44045;PMS7003;29709;52.396;16.796;2022-08-19T14:34:20;17;16;11
44045;PMS7003;29709;52.396;16.796;2022-08-19T14:37:24;14;12;9
44045;PMS7003;29709;52.396;16.796;2022-08-19T14:40:32;14;11;10
44045;PMS7003;29709;52.396;16.796;2022-08-19T14:43:38;13;12;10
44045;PMS7003;29709;52.396;16.796;2022-08-19T14:46:41;16;14;11
44045;PMS7003;29709;52.396;16.796;2022-08-19T14:49:48;15;13;10
44045;PMS7003;29709;52.396;16.796;2022-08-19T14:53:17;14;11;10
44045;PMS7003;29709;52.396;16.796;2022-08-19T14:56:21;14;12;9
44045;PMS7003;29709;52.396;16.796;2022-08-19T14:59:26;13;11;9
44045;PMS7003;29709;52.396;16.796;2022-08-19T15:02:32;11;10;9
44045;PMS7003;29709;52.396;16.796;2022-08-19T15:05:35;13;11;8
44045;PMS7003;29709;52.396;16.796;2022-08-19T15:08:39;15;11;9
44045;PMS7003;29709;52.396;16.796;2022-08-19T15:11:47;13;12;9
44045;PMS7003;29709;52.396;16.796;2022-08-19T15:14:51;15;10;8
44045;PMS7003;29709;52.396;16.796;2022-08-19T15:18:23;11;10;8
44045;PMS7003;29709;52.396;16.796;2022-08-19T15:21:27;13;10;8
44045;PMS7003;29709;52.396;16.796;2022-08-19T15:24:31;11;10;8
44045;PMS7003;29709;52.396;16.796;2022-08-19T15:27:38;12;10;8
44045;PMS7003;29709;52.396;16.796;2022-08-19T15:30:41;10;8;7
44045;PMS7003;29709;52.396;16.796;2022-08-19T15:33:45;11;10;8
44045;PMS7003;29709;52.396;16.796;2022-08-19T15:36:54;17;10;8
44045;PMS7003;29709;52.396;16.796;2022-08-19T15:40:00;9;9;8
44045;PMS7003;29709;52.396;16.796;2022-08-19T15:43:29;10;10;8
44045;PMS7003;29709;52.396;16.796;2022-08-19T15:46:33;11;9;8
44045;PMS7003;29709;52.396;16.796;2022-08-19T15:49:37;12;11;9
44045;PMS7003;29709;52.396;16.796;2022-08-19T15:52:44;15;15;11
44045;PMS7003;29709;52.396;16.796;2022-08-19T15:55:52;14;11;10
44045;PMS7003;29709;52.396;16.796;2022-08-19T15:58:59;14;12;8
44045;PMS7003;29709;52.396;16.796;2022-08-19T16:02:15;13;13;10
44045;PMS7003;29709;52.396;16.796;2022-08-19T16:05:30;15;11;9
44045;PMS7003;29709;52.396;16.796;2022-08-19T16:08:46;11;11;9
44045;PMS7003;29709;52.396;16.796;2022-08-19T16:11:51;17;12;10
44045;PMS7003;29709;52.396;16.796;2022-08-19T16:15:23;17;15;11
44045;PMS7003;29709;52.396;16.796;2022-08-19T16:18:31;12;12;10
44045;PMS7003;29709;52.396;16.796;2022-08-19T16:21:40;15;11;9
44045;PMS7003;29709;52.396;16.796;2022-08-19T16:24:45;20;17;12
44045;PMS7003;29709;52.396;16.796;2022-08-19T16:27:49;19;13;10
44045;PMS7003;29709;52.396;16.796;2022-08-19T16:30:55;14;13;11
44045;PMS7003;29709;52.396;16.796;2022-08-19T16:33:59;16;15;12
44045;PMS7003;29709;52.396;16.796;2022-08-19T16:37:28;22;19;15
44045;PMS7003;29709;52.396;16.796;2022-08-19T16:40:33;18;16;13
44045;PMS7003;29709;52.396;16.796;2022-08-19T16:43:36;20;16;13
44045;PMS7003;29709;52.396;16.796;2022-08-19T16:46:41;19;17;13
44045;PMS7003;29709;52.396;16.796;2022-08-19T16:49:44;24;21;16
44045;PMS7003;29709;52.396;16.796;2022-08-19T16:52:47;18;16;12
44045;PMS7003;29709;52.396;16.796;2022-08-19T16:55:54;23;20;14
44045;PMS7003;29709;52.396;16.796;2022-08-19T16:58:58;18;14;9
44045;PMS7003;29709;52.396;16.796;2022-08-19T17:02:03;19;16;13
44045;PMS7003;29709;52.396;16.796;2022-08-19T17:05:32;17;15;11
44045;PMS7003;29709;52.396;16.796;2022-08-19T17:08:35;19;16;13
44045;PMS7003;29709;52.396;16.796;2022-08-19T17:11:38;15;14;11
44045;PMS7003;29709;52.396;16.796;2022-08-19T17:14:41;18;15;12
44045;PMS7003;29709;52.396;16.796;2022-08-19T17:17:45;17;16;13
44045;PMS7003;29709;52.396;16.796;2022-08-19T17:20:48;18;16;13
44045;PMS7003;29709;52.396;16.796;2022-08-19T17:23:54;21;16;12
44045;PMS7003;29709;52.396;16.796;2022-08-19T17:26:58;20;17;14
44045;PMS7003;29709;52.396;16.796;2022-08-19T17:30:02;20;17;14
44045;PMS7003;29709;52.396;16.796;2022-08-19T17:33:33;18;15;12
44045;PMS7003;29709;52.396;16.796;2022-08-19T17:36:36;16;14;11
44045;PMS7003;29709;52.396;16.796;2022-08-19T17:39:39;22;18;14
44045;PMS7003;29709;52.396;16.796;2022-08-19T17:42:43;24;21;15
44045;PMS7003;29709;52.396;16.796;2022-08-19T17:45:46;18;16;12
44045;PMS7003;29709;52.396;16.796;2022-08-19T17:48:50;22;19;15
44045;PMS7003;29709;52.396;16.796;2022-08-19T17:51:59;21;20;15
44045;PMS7003;29709;52.396;16.796;2022-08-19T17:55:06;21;19;15
44045;PMS7003;29709;52.396;16.796;2022-08-19T17:58:09;20;18;15
44045;PMS7003;29709;52.396;16.796;2022-08-19T18:01:37;24;19;14
44045;PMS7003;29709;52.396;16.796;2022-08-19T18:04:41;21;18;14
44045;PMS7003;29709;52.396;16.796;2022-08-19T18:07:44;20;18;13
44045;PMS7003;29709;52.396;16.796;2022-08-19T18:10:48;21;19;16
44045;PMS7003;29709;52.396;16.796;2022-08-19T18:13:51;23;19;16
44045;PMS7003;29709;52.396;16.796;2022-08-19T18:16:54;22;17;12
44045;PMS7003;29709;52.396;16.796;2022-08-19T18:23:46;26;21;15
44045;PMS7003;29709;52.396;16.796;2022-08-19T18:26:49;22;19;14
44045;PMS7003;29709;52.396;16.796;2022-08-19T18:29:53;21;17;14
44045;PMS7003;29709;52.396;16.796;2022-08-19T18:33:02;20;19;14
44045;PMS7003;29709;52.396;16.796;2022-08-19T18:36:10;23;22;16
44045;PMS7003;29709;52.396;16.796;2022-08-19T18:39:13;24;22;16
44045;PMS7003;29709;52.396;16.796;2022-08-19T18:42:57;25;21;15
44045;PMS7003;29709;52.396;16.796;2022-08-19T18:46:12;25;19;14
44045;PMS7003;29709;52.396;16.796;2022-08-19T18:49:28;23;20;15
44045;PMS7003;29709;52.396;16.796;2022-08-19T18:52:34;20;19;14
44045;PMS7003;29709;52.396;16.796;2022-08-19T18:55:39;23;19;14
44045;PMS7003;29709;52.396;16.796;2022-08-19T18:59:11;26;23;18
44045;PMS7003;29709;52.396;16.796;2022-08-19T19:02:24;24;20;15
44045;PMS7003;29709;52.396;16.796;2022-08-19T19:05:29;26;22;18
44045;PMS7003;29709;52.396;16.796;2022-08-19T19:08:32;26;22;17
44045;PMS7003;29709;52.396;16.796;2022-08-19T19:11:39;25;21;16
44045;PMS7003;29709;52.396;16.796;2022-08-19T19:14:45;20;19;15
44045;PMS7003;29709;52.396;16.796;2022-08-19T19:17:48;19;19;17
44045;PMS7003;29709;52.396;16.796;2022-08-19T19:21:18;22;19;15
44045;PMS7003;29709;52.396;16.796;2022-08-19T19:24:25;19;18;15
44045;PMS7003;29709;52.396;16.796;2022-08-19T19:27:31;24;21;17
44045;PMS7003;29709;52.396;16.796;2022-08-19T19:30:34;23;22;17
44045;PMS7003;29709;52.396;16.796;2022-08-19T19:33:38;26;19;15
44045;PMS7003;29709;52.396;16.796;2022-08-19T19:36:44;23;20;15
44045;PMS7003;29709;52.396;16.796;2022-08-19T19:39:47;24;21;16
44045;PMS7003;29709;52.396;16.796;2022-08-19T19:42:50;23;20;16
44045;PMS7003;29709;52.396;16.796;2022-08-19T19:45:53;24;19;15
44045;PMS7003;29709;52.396;16.796;2022-08-19T19:49:21;24;20;15
44045;PMS7003;29709;52.396;16.796;2022-08-19T19:52:25;23;22;17
44045;PMS7003;29709;52.396;16.796;2022-08-19T19:55:28;22;20;17
44045;PMS7003;29709;52.396;16.796;2022-08-19T19:58:32;23;21;16
44045;PMS7003;29709;52.396;16.796;2022-08-19T20:01:38;19;18;14
44045;PMS7003;29709;52.396;16.796;2022-08-19T20:04:47;26;21;17
44045;PMS7003;29709;52.396;16.796;2022-08-19T20:07:52;24;21;17
44045;PMS7003;29709;52.396;16.796;2022-08-19T20:11:08;25;20;16
44045;PMS7003;29709;52.396;16.796;2022-08-19T20:14:36;24;21;16
44045;PMS7003;29709;52.396;16.796;2022-08-19T20:17:40;25;20;16
44045;PMS7003;29709;52.396;16.796;2022-08-19T20:20:44;23;21;16